createdAt,value
2018-10-06T00:00:18.402Z,9.70
2018-10-06T00:02:46.704Z,9.60
2018-10-06T00:05:15.680Z,9.60
2018-10-06T00:07:43.919Z,9.60
2018-10-06T00:10:12.129Z,9.60
2018-10-06T00:12:40.343Z,9.60
2018-10-06T00:15:08.600Z,9.50
2018-10-06T00:17:37.611Z,9.40
2018-10-06T00:20:06.596Z,9.40
2018-10-06T00:22:34.796Z,9.40
2018-10-06T00:25:03.048Z,9.40
2018-10-06T00:27:31.297Z,9.30
2018-10-06T00:29:59.540Z,9.30
2018-10-06T00:32:27.747Z,9.30
2018-10-06T00:34:55.996Z,9.30
2018-10-06T00:37:24.246Z,9.30
2018-10-06T00:39:52.450Z,9.30
2018-10-06T00:42:20.656Z,9.20
2018-10-06T00:44:48.901Z,9.20
2018-10-06T00:47:17.219Z,9.20
2018-10-06T00:49:46.098Z,9.20
2018-10-06T00:52:14.380Z,9.20
2018-10-06T00:54:42.626Z,9.10
2018-10-06T00:57:10.828Z,9.00
2018-10-06T00:59:39.036Z,9.10
2018-10-06T01:02:07.292Z,9.00
2018-10-06T01:04:36.259Z,9.00
2018-10-06T01:07:04.478Z,9.00
2018-10-06T01:09:32.685Z,9.10
2018-10-06T01:12:00.951Z,9.00
2018-10-06T01:14:29.195Z,9.00
2018-10-06T01:16:58.216Z,9.10
2018-10-06T01:19:27.220Z,9.10
2018-10-06T01:21:55.415Z,9.10
2018-10-06T01:24:23.683Z,9.10
2018-10-06T01:26:51.937Z,9.10
2018-10-06T01:29:20.155Z,9.10
2018-10-06T01:31:48.409Z,9.10
2018-10-06T01:34:16.629Z,9.10
2018-10-06T01:36:44.945Z,9.10
2018-10-06T01:39:13.161Z,9.10
2018-10-06T01:41:41.421Z,9.10
2018-10-06T01:44:09.628Z,9.10
2018-10-06T01:46:37.837Z,9.10
2018-10-06T01:49:06.071Z,9.10
2018-10-06T01:51:34.273Z,9.00
2018-10-06T01:54:03.264Z,9.10
2018-10-06T01:56:32.271Z,9.10
2018-10-06T01:59:01.243Z,9.10
2018-10-06T02:01:30.223Z,9.10
2018-10-06T02:03:58.441Z,9.10
2018-10-06T02:06:26.661Z,9.10
2018-10-06T02:08:54.886Z,9.10
2018-10-06T02:11:23.142Z,9.10
2018-10-06T02:13:51.398Z,9.10
2018-10-06T02:16:19.598Z,9.10
2018-10-06T02:18:48.626Z,9.00
2018-10-06T02:21:16.828Z,8.90
2018-10-06T02:23:45.091Z,8.90
2018-10-06T02:26:13.301Z,8.90
2018-10-06T02:28:41.534Z,8.80
2018-10-06T02:31:09.780Z,8.80
2018-10-06T02:33:38.807Z,8.90
2018-10-06T02:36:07.065Z,8.90
2018-10-06T02:38:36.045Z,8.80
2018-10-06T02:41:05.021Z,8.80
2018-10-06T02:43:33.331Z,8.70
2018-10-06T02:46:02.307Z,8.80
2018-10-06T02:48:30.551Z,8.80
2018-10-06T02:50:58.792Z,8.80
2018-10-06T02:53:27.002Z,8.80
2018-10-06T02:55:55.244Z,8.80
2018-10-06T02:58:23.487Z,8.80
2018-10-06T03:00:51.746Z,8.90
2018-10-06T03:03:19.951Z,8.90
2018-10-06T03:05:48.944Z,8.90
2018-10-06T03:08:17.948Z,8.90
2018-10-06T03:10:46.913Z,8.80
2018-10-06T03:13:15.164Z,8.80
2018-10-06T03:15:43.382Z,8.80
2018-10-06T03:18:12.346Z,8.70
2018-10-06T03:20:40.570Z,8.70
2018-10-06T03:23:08.789Z,8.70
2018-10-06T03:25:37.028Z,8.70
2018-10-06T03:28:05.278Z,8.70
2018-10-06T03:30:34.307Z,8.70
2018-10-06T03:33:02.548Z,8.70
2018-10-06T03:35:30.810Z,8.70
2018-10-06T03:37:59.016Z,8.70
2018-10-06T03:40:27.244Z,8.70
2018-10-06T03:42:55.499Z,8.70
2018-10-06T03:45:23.789Z,8.80
2018-10-06T03:47:51.983Z,8.80
2018-10-06T03:50:20.212Z,8.80
2018-10-06T03:52:48.464Z,8.80
2018-10-06T03:55:17.454Z,8.80
2018-10-06T03:57:46.479Z,8.80
2018-10-06T04:00:14.699Z,8.80
2018-10-06T04:02:42.914Z,8.80
2018-10-06T04:05:11.169Z,8.80
2018-10-06T04:07:39.441Z,8.80
2018-10-06T04:10:07.656Z,8.90
2018-10-06T04:12:35.853Z,8.90
2018-10-06T04:15:04.108Z,9.00
2018-10-06T04:17:32.347Z,9.00
2018-10-06T04:20:00.553Z,8.90
2018-10-06T04:22:28.755Z,8.90
2018-10-06T04:24:56.981Z,8.90
2018-10-06T04:27:25.999Z,8.90
2018-10-06T04:29:54.979Z,8.90
2018-10-06T04:32:23.945Z,8.80
2018-10-06T04:34:52.208Z,8.80
2018-10-06T04:37:20.415Z,8.90
2018-10-06T04:39:49.457Z,8.80
2018-10-06T04:42:17.668Z,8.80
2018-10-06T04:44:45.875Z,8.90
2018-10-06T04:47:14.851Z,8.90
2018-10-06T04:49:43.834Z,8.90
2018-10-06T04:52:12.099Z,8.80
2018-10-06T04:54:40.336Z,8.80
2018-10-06T04:57:08.547Z,8.90
2018-10-06T04:59:36.797Z,8.90
2018-10-06T05:02:05.031Z,8.90
2018-10-06T05:04:34.047Z,8.90
2018-10-06T05:07:02.321Z,8.80
2018-10-06T05:09:31.331Z,8.90
2018-10-06T05:11:59.590Z,8.80
2018-10-06T05:14:28.550Z,8.90
2018-10-06T05:16:56.765Z,8.90
2018-10-06T05:19:25.025Z,8.80
2018-10-06T05:21:54.044Z,8.80
2018-10-06T05:24:22.259Z,8.80
2018-10-06T05:26:50.524Z,8.80
2018-10-06T05:29:18.776Z,8.80
2018-10-06T05:31:47.744Z,8.80
2018-10-06T05:34:16.063Z,8.80
2018-10-06T05:36:44.213Z,8.80
2018-10-06T05:39:12.473Z,8.80
2018-10-06T05:41:40.725Z,8.80
2018-10-06T05:44:08.975Z,8.80
2018-10-06T05:46:37.336Z,8.80
2018-10-06T05:49:05.476Z,8.80
2018-10-06T05:51:33.708Z,8.80
2018-10-06T05:54:01.910Z,8.80
2018-10-06T05:56:30.126Z,8.80
2018-10-06T05:58:58.445Z,8.80
2018-10-06T06:01:27.412Z,8.80
2018-10-06T06:03:55.648Z,8.80
2018-10-06T06:06:23.916Z,8.80
2018-10-06T06:08:52.166Z,8.90
2018-10-06T06:11:20.389Z,8.90
2018-10-06T06:13:49.355Z,8.80
2018-10-06T06:16:17.632Z,8.80
2018-10-06T06:18:45.876Z,8.80
2018-10-06T06:21:14.103Z,8.90
2018-10-06T06:23:42.340Z,8.80
2018-10-06T06:26:10.560Z,8.90
2018-10-06T06:28:39.541Z,9.00
2018-10-06T06:31:07.867Z,8.90
2018-10-06T06:33:36.072Z,9.00
2018-10-06T06:36:04.328Z,9.00
2018-10-06T06:38:32.595Z,9.10
2018-10-06T06:41:00.847Z,9.20
2018-10-06T06:43:29.825Z,9.30
2018-10-06T06:45:58.037Z,9.30
2018-10-06T06:48:26.250Z,9.40
2018-10-06T06:50:55.244Z,9.60
2018-10-06T06:53:23.491Z,9.50
2018-10-06T06:55:51.747Z,9.60
2018-10-06T06:58:19.995Z,9.70
2018-10-06T07:00:48.209Z,9.80
2018-10-06T07:03:16.473Z,9.80
2018-10-06T07:05:45.572Z,10.00
2018-10-06T07:08:14.485Z,10.10
2018-10-06T07:10:42.739Z,10.10
2018-10-06T07:13:10.993Z,10.20
2018-10-06T07:15:39.247Z,10.30
2018-10-06T07:18:07.452Z,10.40
2018-10-06T07:20:36.479Z,10.70
2018-10-06T07:23:04.707Z,10.70
2018-10-06T07:25:32.982Z,10.90
2018-10-06T07:28:01.230Z,11.00
2018-10-06T07:30:29.488Z,11.10
2018-10-06T07:32:57.717Z,11.30
2018-10-06T07:35:26.002Z,11.40
2018-10-06T07:37:54.229Z,11.60
2018-10-06T07:40:22.476Z,11.70
2018-10-06T07:42:50.688Z,11.80
2018-10-06T07:45:18.951Z,12.00
2018-10-06T07:47:47.166Z,12.20
2018-10-06T07:50:15.442Z,12.30
2018-10-06T07:52:43.684Z,12.50
2018-10-06T07:55:11.975Z,12.60
2018-10-06T07:57:40.215Z,12.80
2018-10-06T08:00:08.495Z,12.90
2018-10-06T08:02:36.760Z,13.10
2018-10-06T08:05:05.758Z,13.40
2018-10-06T08:07:33.987Z,13.40
2018-10-06T08:10:02.210Z,13.60
2018-10-06T08:12:30.469Z,13.60
2018-10-06T08:14:58.688Z,13.70
2018-10-06T08:17:26.906Z,13.90
2018-10-06T08:19:55.181Z,14.10
2018-10-06T08:22:23.405Z,14.20
2018-10-06T08:24:51.621Z,14.30
2018-10-06T08:27:20.676Z,14.50
2018-10-06T08:29:48.902Z,14.60
2018-10-06T08:32:17.169Z,14.60
2018-10-06T08:34:45.436Z,14.80
2018-10-06T08:37:14.006Z,15.00
2018-10-06T08:39:42.219Z,15.10
2018-10-06T08:42:10.450Z,15.20
2018-10-06T08:44:38.813Z,15.30
2018-10-06T08:47:07.084Z,15.40
2018-10-06T08:49:36.079Z,15.60
2018-10-06T08:52:06.062Z,15.70
2018-10-06T08:54:34.316Z,15.60
2018-10-06T08:57:04.146Z,15.80
2018-10-06T08:59:32.686Z,15.70
2018-10-06T09:02:01.814Z,16.00
2018-10-06T09:04:30.082Z,16.00
2018-10-06T09:06:58.306Z,15.90
2018-10-06T09:09:26.543Z,15.80
2018-10-06T09:11:56.838Z,16.00
2018-10-06T09:14:25.204Z,16.00
2018-10-06T09:16:53.458Z,16.10
2018-10-06T09:19:21.679Z,16.10
2018-10-06T09:21:49.940Z,16.30
2018-10-06T09:24:18.175Z,16.50
2018-10-06T09:26:46.436Z,16.70
2018-10-06T09:29:14.716Z,16.90
2018-10-06T09:31:42.976Z,17.10
2018-10-06T09:34:11.213Z,17.20
2018-10-06T09:36:39.516Z,17.40
2018-10-06T09:39:07.744Z,17.60
2018-10-06T09:41:36.735Z,18.00
2018-10-06T09:44:04.958Z,18.00
2018-10-06T09:46:33.197Z,18.20
2018-10-06T09:49:02.195Z,18.50
2018-10-06T09:51:31.227Z,18.60
2018-10-06T09:53:59.456Z,18.60
2018-10-06T09:56:27.745Z,18.80
2018-10-06T09:58:56.004Z,18.70
2018-10-06T10:01:29.973Z,18.60
2018-10-06T10:03:58.271Z,18.80
2018-10-06T10:06:26.521Z,18.80
2018-10-06T10:08:54.819Z,18.90
2018-10-06T10:11:23.077Z,19.20
2018-10-06T10:13:51.284Z,19.50
2018-10-06T10:16:19.513Z,19.50
2018-10-06T10:18:47.805Z,19.70
2018-10-06T10:21:16.026Z,20.00
2018-10-06T10:23:44.311Z,20.30
2018-10-06T10:26:12.571Z,20.40
2018-10-06T10:28:40.767Z,20.70
2018-10-06T10:31:09.053Z,20.90
2018-10-06T10:33:38.031Z,21.40
2018-10-06T10:36:06.310Z,21.40
2018-10-06T10:38:34.577Z,21.50
2018-10-06T10:41:02.809Z,21.70
2018-10-06T10:43:31.077Z,22.00
2018-10-06T10:46:00.092Z,22.50
2018-10-06T10:48:28.357Z,22.40
2018-10-06T10:50:56.660Z,22.70
2018-10-06T10:53:24.912Z,22.90
2018-10-06T10:55:53.175Z,23.10
2018-10-06T10:58:21.432Z,23.10
2018-10-06T11:00:49.680Z,23.10
2018-10-06T11:03:17.913Z,22.90
2018-10-06T11:05:46.140Z,23.00
2018-10-06T11:08:14.401Z,22.90
2018-10-06T11:10:42.619Z,23.20
2018-10-06T11:13:11.636Z,23.30
2018-10-06T11:15:40.608Z,23.40
2018-10-06T11:18:09.599Z,23.60
2018-10-06T11:20:38.639Z,23.70
2018-10-06T11:23:06.846Z,23.70
2018-10-06T11:25:35.126Z,24.00
2018-10-06T11:28:03.334Z,24.30
2018-10-06T11:30:31.630Z,24.30
2018-10-06T11:32:59.853Z,24.80
2018-10-06T11:35:28.125Z,25.10
2018-10-06T11:37:56.369Z,25.20
2018-10-06T11:40:25.334Z,25.80
2018-10-06T11:42:54.322Z,25.50
2018-10-06T11:45:23.348Z,25.60
2018-10-06T11:47:51.560Z,25.60
2018-10-06T11:50:19.884Z,26.00
2018-10-06T11:52:48.023Z,26.50
2018-10-06T11:55:16.256Z,26.80
2018-10-06T11:57:44.527Z,27.00
2018-10-06T12:00:12.911Z,27.30
2018-10-06T12:02:41.007Z,26.80
2018-10-06T12:05:09.223Z,26.80
2018-10-06T12:07:38.245Z,27.60
2018-10-06T12:10:06.483Z,27.60
2018-10-06T12:12:34.730Z,27.70
2018-10-06T12:15:02.971Z,28.10
2018-10-06T12:17:31.200Z,28.50
2018-10-06T12:19:59.434Z,28.80
2018-10-06T12:22:27.691Z,28.90
2018-10-06T12:24:55.975Z,29.10
2018-10-06T12:27:24.939Z,28.90
2018-10-06T12:29:53.943Z,28.90
2018-10-06T12:32:22.971Z,28.70
2018-10-06T12:34:51.327Z,28.70
2018-10-06T12:37:19.490Z,28.80
2018-10-06T12:39:48.547Z,29.40
2018-10-06T12:42:16.969Z,29.40
2018-10-06T12:44:45.893Z,29.60
2018-10-06T12:47:14.183Z,29.50
2018-10-06T12:49:42.398Z,29.50
2018-10-06T12:52:10.667Z,28.70
2018-10-06T12:54:38.889Z,28.80
2018-10-06T12:57:07.125Z,29.40
2018-10-06T12:59:35.365Z,29.20
2018-10-06T13:02:04.501Z,29.40
2018-10-06T13:04:33.484Z,28.20
2018-10-06T13:07:02.215Z,28.40
2018-10-06T13:09:31.562Z,28.80
2018-10-06T13:11:59.832Z,29.40
2018-10-06T13:14:28.781Z,30.00
2018-10-06T13:16:57.235Z,30.10
2018-10-06T13:19:25.516Z,30.60
2018-10-06T13:21:53.747Z,31.70
2018-10-06T13:24:22.063Z,32.10
2018-10-06T13:26:50.641Z,31.90
2018-10-06T13:29:18.856Z,31.30
2018-10-06T13:31:47.163Z,31.60
2018-10-06T13:34:15.380Z,32.20
2018-10-06T13:36:43.658Z,32.20
2018-10-06T13:39:11.869Z,32.40
2018-10-06T13:41:40.914Z,31.80
2018-10-06T13:44:09.450Z,31.60
2018-10-06T13:46:37.675Z,31.60
2018-10-06T13:49:05.946Z,31.40
2018-10-06T13:51:34.984Z,30.50
2018-10-06T13:54:03.973Z,29.90
2018-10-06T13:56:33.036Z,29.60
2018-10-06T13:59:01.267Z,29.60
2018-10-06T14:01:29.506Z,28.70
2018-10-06T14:03:57.760Z,28.00
2018-10-06T14:06:25.984Z,27.60
2018-10-06T14:08:54.268Z,27.40
2018-10-06T14:11:22.579Z,27.40
2018-10-06T14:13:50.850Z,27.50
2018-10-06T14:16:19.089Z,27.50
2018-10-06T14:18:48.071Z,27.40
2018-10-06T14:21:17.107Z,27.30
2018-10-06T14:23:45.375Z,27.30
2018-10-06T14:26:13.653Z,27.10
2018-10-06T14:28:41.947Z,26.90
2018-10-06T14:31:10.184Z,26.70
2018-10-06T14:33:39.164Z,26.60
2018-10-06T14:36:07.448Z,26.50
2018-10-06T14:38:36.464Z,26.30
2018-10-06T14:41:04.688Z,26.30
2018-10-06T14:43:32.904Z,26.40
2018-10-06T14:46:01.202Z,26.40
2018-10-06T14:48:29.410Z,26.30
2018-10-06T14:50:57.654Z,26.10
2018-10-06T14:53:25.863Z,26.20
2018-10-06T14:55:54.091Z,26.10
2018-10-06T14:58:22.319Z,26.00
2018-10-06T15:00:50.535Z,25.70
2018-10-06T15:03:18.808Z,25.40
2018-10-06T15:05:47.837Z,25.00
2018-10-06T15:08:16.075Z,24.90
2018-10-06T15:10:45.135Z,24.60
2018-10-06T15:13:13.375Z,24.60
2018-10-06T15:15:41.607Z,24.60
2018-10-06T15:18:09.868Z,24.80
2018-10-06T15:20:38.079Z,24.50
2018-10-06T15:23:07.073Z,24.40
2018-10-06T15:25:36.060Z,24.20
2018-10-06T15:28:05.162Z,23.90
2018-10-06T15:30:33.297Z,23.90
2018-10-06T15:33:01.572Z,24.00
2018-10-06T15:35:29.840Z,24.00
2018-10-06T15:37:58.140Z,24.00
2018-10-06T15:40:26.310Z,23.90
2018-10-06T15:42:54.584Z,23.80
2018-10-06T15:45:22.796Z,23.50
2018-10-06T15:47:51.821Z,23.40
2018-10-06T15:50:20.042Z,23.40
2018-10-06T15:52:48.263Z,23.20
2018-10-06T15:55:16.559Z,23.00
2018-10-06T15:57:44.807Z,22.90
2018-10-06T16:00:13.855Z,22.80
2018-10-06T16:02:42.128Z,22.80
2018-10-06T16:05:10.345Z,22.70
2018-10-06T16:07:39.373Z,22.60
2018-10-06T16:10:07.657Z,22.60
2018-10-06T16:12:35.919Z,22.70
2018-10-06T16:15:04.202Z,22.50
2018-10-06T16:17:32.442Z,22.40
2018-10-06T16:20:01.464Z,21.90
2018-10-06T16:22:29.684Z,21.90
2018-10-06T16:24:57.974Z,21.90
2018-10-06T16:27:26.270Z,21.90
2018-10-06T16:29:54.416Z,21.80
2018-10-06T16:32:22.667Z,21.80
2018-10-06T16:34:50.892Z,21.90
2018-10-06T16:37:19.116Z,21.90
2018-10-06T16:39:47.396Z,21.80
2018-10-06T16:42:15.620Z,21.70
2018-10-06T16:44:44.594Z,21.70
2018-10-06T16:47:12.850Z,21.60
2018-10-06T16:49:41.110Z,21.80
2018-10-06T16:52:09.344Z,21.60
2018-10-06T16:54:38.323Z,21.70
2018-10-06T16:57:06.612Z,21.70
2018-10-06T16:59:34.833Z,21.70
2018-10-06T17:02:03.194Z,21.60
2018-10-06T17:04:31.333Z,21.60
2018-10-06T17:07:00.350Z,21.50
2018-10-06T17:09:29.404Z,21.30
2018-10-06T17:11:57.647Z,21.30
2018-10-06T17:14:25.874Z,21.30
2018-10-06T17:16:54.097Z,21.20
2018-10-06T17:19:22.326Z,21.10
2018-10-06T17:21:51.424Z,21.10
2018-10-06T17:24:19.720Z,21.00
2018-10-06T17:26:47.948Z,20.90
2018-10-06T17:29:16.182Z,20.90
2018-10-06T17:31:45.814Z,20.80
2018-10-06T17:34:14.856Z,20.90
2018-10-06T17:36:43.067Z,20.80
2018-10-06T17:39:11.347Z,20.80
2018-10-06T17:41:40.319Z,20.70
2018-10-06T17:44:09.433Z,20.80
2018-10-06T17:46:37.621Z,20.80
2018-10-06T17:49:05.901Z,20.80
2018-10-06T17:51:34.109Z,20.80
2018-10-06T17:54:02.353Z,20.80
2018-10-06T17:56:31.437Z,20.80
2018-10-06T17:59:00.555Z,20.80
2018-10-06T18:01:29.610Z,20.70
2018-10-06T18:03:58.596Z,20.80
2018-10-06T18:06:26.866Z,20.70
2018-10-06T18:08:55.089Z,20.80
2018-10-06T18:11:23.314Z,20.70
2018-10-06T18:13:51.624Z,20.70
2018-10-06T18:16:20.660Z,20.60
2018-10-06T18:18:48.894Z,20.60
2018-10-06T18:21:18.086Z,20.50
2018-10-06T18:23:46.145Z,20.50
2018-10-06T18:26:14.400Z,20.50
2018-10-06T18:28:42.741Z,20.40
2018-10-06T18:31:11.039Z,20.40
2018-10-06T18:33:39.285Z,20.40
2018-10-06T18:36:07.559Z,20.30
2018-10-06T18:38:35.786Z,20.30
2018-10-06T18:41:04.015Z,20.20
2018-10-06T18:43:32.365Z,20.10
2018-10-06T18:46:01.259Z,20.00
2018-10-06T18:48:30.320Z,19.90
2018-10-06T18:50:58.574Z,19.90
2018-10-06T18:53:26.809Z,19.80
2018-10-06T18:55:55.818Z,19.60
2018-10-06T18:58:24.850Z,19.50
2018-10-06T19:00:53.348Z,19.50
2018-10-06T19:03:21.944Z,19.40
2018-10-06T19:05:50.828Z,19.30
2018-10-06T19:08:19.412Z,19.20
2018-10-06T19:10:48.739Z,19.10
2018-10-06T19:13:18.478Z,19.10
2018-10-06T19:15:47.068Z,19.00
2018-10-06T19:18:16.093Z,19.10
2018-10-06T19:20:45.168Z,19.00
2018-10-06T19:23:13.759Z,19.00
2018-10-06T19:25:42.426Z,18.90
2018-10-06T19:28:11.004Z,18.90
2018-10-06T19:30:39.553Z,18.80
2018-10-06T19:33:08.207Z,18.80
2018-10-06T19:35:36.718Z,18.70
2018-10-06T19:38:06.692Z,18.60
2018-10-06T19:40:35.291Z,18.60
2018-10-06T19:43:03.866Z,18.60
2018-10-06T19:45:32.417Z,18.50
2018-10-06T19:48:00.986Z,18.50
2018-10-06T19:50:29.524Z,18.50
2018-10-06T19:52:58.169Z,18.50
2018-10-06T19:55:26.682Z,18.40
2018-10-06T19:57:55.218Z,18.40
2018-10-06T20:00:24.569Z,18.30
2018-10-06T20:02:53.110Z,18.30
2018-10-06T20:05:22.385Z,18.30
2018-10-06T20:07:50.979Z,18.30
2018-10-06T20:10:20.275Z,18.20
2018-10-06T20:12:48.850Z,18.20
2018-10-06T20:15:17.409Z,18.20
2018-10-06T20:17:45.952Z,18.20
2018-10-06T20:20:15.293Z,18.20
2018-10-06T20:22:43.859Z,18.20
2018-10-06T20:25:12.244Z,18.20
2018-10-06T20:27:40.485Z,18.20
2018-10-06T20:30:08.695Z,18.10
2018-10-06T20:32:38.223Z,18.00
2018-10-06T20:35:06.637Z,18.00
2018-10-06T20:37:34.923Z,17.90
2018-10-06T20:40:03.176Z,17.80
2018-10-06T20:42:31.400Z,17.80
2018-10-06T20:45:00.441Z,17.80
2018-10-06T20:47:28.663Z,17.80
2018-10-06T20:49:56.919Z,17.80
2018-10-06T20:52:26.227Z,17.70
2018-10-06T20:54:54.531Z,17.70
2018-10-06T20:57:23.552Z,17.70
2018-10-06T20:59:51.774Z,17.70
2018-10-06T21:02:20.057Z,17.70
2018-10-06T21:04:48.282Z,17.70
2018-10-06T21:07:16.554Z,17.70
2018-10-06T21:09:44.816Z,17.70
2018-10-06T21:12:13.808Z,17.60
2018-10-06T21:14:42.033Z,17.60
2018-10-06T21:17:10.299Z,17.60
2018-10-06T21:19:39.321Z,17.60
2018-10-06T21:22:07.592Z,17.60
2018-10-06T21:24:35.841Z,17.60
2018-10-06T21:27:04.120Z,17.50
2018-10-06T21:29:32.534Z,17.50
2018-10-06T21:32:00.608Z,17.40
2018-10-06T21:34:28.858Z,17.40
2018-10-06T21:36:57.146Z,17.40
2018-10-06T21:39:25.429Z,17.40
2018-10-06T21:41:53.688Z,17.30
2018-10-06T21:44:21.938Z,17.30
2018-10-06T21:46:50.201Z,17.20
2018-10-06T21:49:18.429Z,17.10
2018-10-06T21:51:46.661Z,17.10
2018-10-06T21:54:14.878Z,17.10
2018-10-06T21:56:43.134Z,17.10
2018-10-06T21:59:11.374Z,17.00
2018-10-06T22:01:40.414Z,16.90
2018-10-06T22:04:09.399Z,16.80
2018-10-06T22:06:37.634Z,16.80
2018-10-06T22:09:06.657Z,16.60
2018-10-06T22:11:34.940Z,16.70
2018-10-06T22:14:03.192Z,16.60
2018-10-06T22:16:31.432Z,16.60
2018-10-06T22:18:59.656Z,16.40
2018-10-06T22:21:27.927Z,16.40
2018-10-06T22:23:56.939Z,16.20
2018-10-06T22:26:25.219Z,16.20
2018-10-06T22:28:53.423Z,16.20
2018-10-06T22:31:21.704Z,16.10
2018-10-06T22:33:49.927Z,16.10
2018-10-06T22:36:18.202Z,16.10
2018-10-06T22:38:47.252Z,16.10
2018-10-06T22:41:15.461Z,16.00
2018-10-06T22:43:44.547Z,16.00
2018-10-06T22:46:13.492Z,15.90
2018-10-06T22:48:41.734Z,15.90
2018-10-06T22:51:10.760Z,15.80
2018-10-06T22:53:39.022Z,15.80
2018-10-06T22:56:07.250Z,15.70
2018-10-06T22:58:35.517Z,15.70
2018-10-06T23:01:03.779Z,15.70
2018-10-06T23:03:31.973Z,15.70
2018-10-06T23:06:00.204Z,15.70
2018-10-06T23:08:28.422Z,15.70
2018-10-06T23:10:56.707Z,15.60
2018-10-06T23:13:24.916Z,15.60
2018-10-06T23:15:53.954Z,15.50
2018-10-06T23:18:22.169Z,15.50
2018-10-06T23:20:50.431Z,15.50
2018-10-06T23:23:18.683Z,15.40
2018-10-06T23:25:46.917Z,15.40
2018-10-06T23:28:15.925Z,15.30
2018-10-06T23:30:44.183Z,15.30
2018-10-06T23:33:13.207Z,15.30
2018-10-06T23:35:41.435Z,15.20
2018-10-06T23:38:09.699Z,15.20
2018-10-06T23:40:37.959Z,15.20
2018-10-06T23:43:06.205Z,15.20
2018-10-06T23:45:34.455Z,15.10
2018-10-06T23:48:02.676Z,15.10
2018-10-06T23:50:30.958Z,15.10
2018-10-06T23:52:59.231Z,15.00
2018-10-06T23:55:27.524Z,15.00
2018-10-06T23:57:55.789Z,15.00
